Lonsdale, Arkansas
Current Conditions -  °F | °C
As of 1:06 PM on Sunday 23 Nov 2014 (Local Time) from KHOT Reporting Station
Overcast Overcast  
Wind Chill: 62°   Ceiling: 900
Heat Index: 62°   Visibility: 10mi
Dew Point: 59°   Wind: 3mph
Humidity: 90%   Direction: 170°S
Pressure: 29.38"   Gusts: NA
Location:  34.54°N, 92.81°W
Report Text: KHOT 231906Z AUTO 17003KT 10SM OVC009 17/15 A2938 RMK AO2 CIG 008V013 T01670150
Loading
Personal Weather Stations






























Interactive Weather Map New forecast layout! Learn more

10-Day Weather Forecast

Advertisements
Track Severe Weather on mobile